Time;durP1;ratioP1;P1;durP2;ratioP2;P2;SDS_P1;SDS_P2;PMS_P1;PMS_P2;Temp;Humidity;BMP_temperature;BMP_pressure;BME280_temperature;BME280_humidity;BME280_pressure;Samples;Min_cycle;Max_cycle;Signal;HPM_P1;HPM_P2
2022/06/19 00:00:08;;;;;;;0.10;0.10;;;;;;;22.41;30.06;100212.81;4976569;28;20460;-73
2022/06/19 00:02:35;;;;;;;0.10;0.10;;;;;;;22.42;30.50;100220.06;4992540;28;20049;-73
2022/06/19 00:05:01;;;;;;;0.10;0.10;;;;;;;22.51;30.36;100215.84;4960687;28;20089;-73
2022/06/19 00:07:26;;;;;;;0.10;0.10;;;;;;;22.48;30.39;100214.69;4976105;28;20384;-73
2022/06/19 00:09:52;;;;;;;0.10;0.10;;;;;;;22.49;30.69;100211.41;4992314;28;20031;-72
2022/06/19 00:12:18;;;;;;;0.10;0.10;;;;;;;22.52;30.67;100212.53;4976508;28;20054;-74
2022/06/19 00:14:44;;;;;;;0.10;0.10;;;;;;;22.48;30.46;100207.00;4974962;28;20516;-73
2022/06/19 00:17:11;;;;;;;0.10;0.10;;;;;;;22.39;30.86;100206.81;4992522;28;20030;-73
2022/06/19 00:19:36;;;;;;;0.10;0.10;;;;;;;22.31;30.84;100196.88;4992183;28;20023;-73
2022/06/19 00:22:03;;;;;;;0.10;0.10;;;;;;;22.31;30.71;100196.06;4975664;28;20041;-73
2022/06/19 00:24:31;;;;;;;0.10;0.10;;;;;;;22.31;31.28;100204.59;4976182;28;20026;-73
2022/06/19 00:26:58;;;;;;;0.10;0.10;;;;;;;22.22;30.87;100196.72;4992021;28;20065;-74
2022/06/19 00:29:23;;;;;;;0.10;0.10;;;;;;;22.17;30.90;100203.72;4992266;28;20444;-74
2022/06/19 00:31:49;;;;;;;0.10;0.10;;;;;;;22.30;30.47;100192.44;4991872;28;20118;-74
2022/06/19 00:34:18;;;;;;;0.13;0.13;;;;;;;22.09;31.39;100175.94;4975916;28;20113;-74
2022/06/19 00:36:49;;;;;;;0.10;0.10;;;;;;;22.22;30.61;100189.00;4992026;28;20022;-73
2022/06/19 00:39:20;;;;;;;0.10;0.10;;;;;;;22.20;31.32;100190.69;4991673;28;20050;-73
2022/06/19 00:41:49;;;;;;;0.10;0.10;;;;;;;22.09;31.43;100196.56;4976755;28;20054;-73
2022/06/19 00:44:16;;;;;;;0.10;0.10;;;;;;;22.09;31.21;100190.91;4991958;28;20502;-74
2022/06/19 00:47:00;;;;;;;0.10;0.10;;;;;;;22.02;30.87;100190.28;4975743;28;20038;-73
2022/06/19 00:49:33;;;;;;;0.20;0.20;;;;;;;22.00;30.74;100198.41;4975368;28;20086;-73
2022/06/19 00:52:19;;;;;;;0.17;0.17;;;;;;;22.09;30.42;100192.94;4992054;28;20033;-72
2022/06/19 00:54:52;;;;;;;0.10;0.10;;;;;;;21.96;31.16;100193.66;4991405;28;20062;-73
2022/06/19 00:57:18;;;;;;;;;;;;;;;22.02;31.20;100195.97;4992633;28;20039;-73
2022/06/19 00:59:49;;;;;;;0.10;0.10;;;;;;;21.93;31.51;100199.38;4975047;28;19969;-73
2022/06/19 01:02:15;;;;;;;0.10;0.10;;;;;;;21.88;32.82;100197.88;4975566;28;20027;-73
2022/06/19 01:04:48;;;;;;;0.10;0.10;;;;;;;21.86;32.73;100191.84;4974950;28;20354;-73
2022/06/19 01:07:17;;;;;;;0.10;0.10;;;;;;;21.86;33.41;100191.84;4991136;28;20058;-73
2022/06/19 01:09:42;;;;;;;0.10;0.10;;;;;;;21.86;32.75;100191.84;4991079;28;20027;-72
2022/06/19 01:12:09;;;;;;;0.10;0.10;;;;;;;21.89;33.55;100196.66;4976593;28;20037;-72
2022/06/19 01:14:37;;;;;;;0.10;0.10;;;;;;;21.84;33.27;100187.84;4974348;28;20051;-72
2022/06/19 01:17:07;;;;;;;0.10;0.10;;;;;;;21.83;33.59;100191.94;4976547;28;20031;-72
2022/06/19 01:19:38;;;;;;;0.10;0.10;;;;;;;21.78;33.75;100187.59;4974725;28;20031;-72
2022/06/19 01:22:35;;;;;;;0.10;0.10;;;;;;;21.77;33.85;100188.03;4975895;28;20058;-73
2022/06/19 01:25:03;;;;;;;0.13;0.13;;;;;;;21.79;33.74;100183.53;4990850;28;20092;-73
2022/06/19 01:30:16;;;;;;;0.10;0.10;;;;;;;21.93;33.15;100188.06;4975769;28;20207;-74
2022/06/19 01:32:45;;;;;;;0.10;0.10;;;;;;;21.78;33.40;100184.75;4975762;28;20039;-73
2022/06/19 01:35:12;;;;;;;0.10;0.10;;;;;;;21.71;33.52;100179.25;4974752;28;20027;-72
2022/06/19 01:37:40;;;;;;;0.10;0.10;;;;;;;21.75;33.76;100193.34;4974395;28;20476;-73
2022/06/19 01:40:31;;;;;;;0.10;0.10;;;;;;;21.70;34.03;100184.13;4975658;28;20042;-72
2022/06/19 01:42:57;;;;;;;0.10;0.10;;;;;;;21.56;34.52;100184.44;4991038;28;20499;-73
2022/06/19 01:45:23;;;;;;;0.10;0.10;;;;;;;21.50;34.60;100185.41;4974203;28;20461;-72
2022/06/19 01:47:49;;;;;;;0.10;0.10;;;;;;;21.51;34.09;100173.63;4990426;28;20109;-73
2022/06/19 01:50:22;;;;;;;0.10;0.10;;;;;;;21.40;34.84;100179.53;4974742;28;20069;-73
2022/06/19 01:52:53;;;;;;;0.10;0.10;;;;;;;21.38;35.06;100182.00;4975054;28;20031;-73
2022/06/19 01:55:20;;;;;;;0.10;0.10;;;;;;;21.37;34.86;100176.78;4990559;28;20425;-72
2022/06/19 01:57:53;;;;;;;0.10;0.10;;;;;;;21.41;34.82;100172.66;4990290;28;20170;-73
2022/06/19 02:00:25;;;;;;;0.10;0.10;;;;;;;21.38;35.02;100173.50;4974413;28;20038;-73
2022/06/19 02:03:04;;;;;;;0.10;0.10;;;;;;;21.30;35.45;100169.22;4990257;28;20031;-74
2022/06/19 02:05:31;;;;;;;0.10;0.10;;;;;;;21.35;35.69;100182.88;4990560;28;20511;-72
2022/06/19 02:08:00;;;;;;;0.10;0.10;;;;;;;21.33;35.06;100159.88;4990463;28;20480;-72
2022/06/19 02:10:26;;;;;;;0.10;0.10;;;;;;;21.21;35.89;100165.38;4958365;28;20075;-72
2022/06/19 02:12:54;;;;;;;0.10;0.10;;;;;;;21.22;36.07;100175.47;4975635;28;20142;-72
2022/06/19 02:15:20;;;;;;;0.20;0.20;;;;;;;21.24;35.64;100162.47;4976975;28;20066;-73
2022/06/19 02:17:50;;;;;;;0.10;0.10;;;;;;;21.23;35.19;100163.69;4977326;28;20094;-73
2022/06/19 02:20:17;;;;;;;0.10;0.10;;;;;;;21.17;36.27;100165.44;4977574;28;20496;-73
2022/06/19 02:22:42;;;;;;;0.10;0.10;;;;;;;21.13;35.88;100136.44;4993452;28;20027;-73
2022/06/19 02:25:09;;;;;;;0.10;0.10;;;;;;;21.18;36.29;100164.22;4976930;28;20483;-74
2022/06/19 02:27:37;;;;;;;0.10;0.10;;;;;;;21.16;36.66;100164.66;4993134;28;20030;-72
2022/06/19 02:30:06;;;;;;;0.20;0.20;;;;;;;21.14;36.25;100149.34;4993384;28;20487;-72
2022/06/19 02:32:42;;;;;;;0.10;0.10;;;;;;;21.09;36.52;100152.69;4993611;28;20045;-73
2022/06/19 02:35:16;;;;;;;0.10;0.10;;;;;;;21.04;36.52;100158.84;4977225;28;20034;-73
2022/06/19 02:37:45;;;;;;;0.20;0.20;;;;;;;21.07;36.76;100157.97;4976775;28;20045;-73
2022/06/19 02:40:41;;;;;;;0.10;0.10;;;;;;;21.08;36.80;100157.53;4976521;28;20080;-73
2022/06/19 02:43:29;;;;;;;0.10;0.10;;;;;;;21.09;36.82;100152.69;4976683;28;20050;-73
2022/06/19 02:45:55;;;;;;;0.10;0.10;;;;;;;21.03;37.38;100149.56;4977019;28;20026;-73
2022/06/19 02:48:21;;;;;;;0.20;0.20;;;;;;;20.99;36.76;100142.41;4976704;28;20034;-72
2022/06/19 02:50:47;;;;;;;0.10;0.10;;;;;;;21.05;36.71;100140.66;4993158;28;20034;-74
2022/06/19 02:53:12;;;;;;;0.20;0.20;;;;;;;21.02;36.84;100147.16;4993127;28;20121;-74
2022/06/19 02:55:38;;;;;;;0.10;0.10;;;;;;;21.02;37.17;100155.66;4976846;28;20469;-73
2022/06/19 02:58:04;;;;;;;0.20;0.20;;;;;;;21.06;36.68;100153.56;4976687;28;20045;-75
2022/06/19 03:00:30;;;;;;;0.10;0.10;;;;;;;20.93;36.94;100162.69;4976597;28;20030;-73
2022/06/19 03:02:59;;;;;;;0.10;0.10;;;;;;;20.87;37.21;100164.41;4976233;28;20035;-73
2022/06/19 03:05:28;;;;;;;0.10;0.10;;;;;;;20.84;37.07;100167.34;4976735;28;20053;-74
2022/06/19 03:07:54;;;;;;;0.10;0.10;;;;;;;20.80;36.91;100164.56;4976528;28;20039;-72
2022/06/19 03:10:20;;;;;;;0.10;0.10;;;;;;;20.75;36.14;100156.59;4993012;28;20041;-73
2022/06/19 03:12:46;;;;;;;0.10;0.10;;;;;;;20.91;36.27;100142.53;4976286;28;20400;-73
2022/06/19 03:15:13;;;;;;;0.10;0.10;;;;;;;20.83;36.71;100155.22;4976207;28;20030;-72
2022/06/19 03:17:39;;;;;;;0.10;0.10;;;;;;;20.85;37.15;100161.25;4960558;28;20038;-72
2022/06/19 03:20:06;;;;;;;0.13;0.13;;;;;;;21.00;37.13;100160.97;4992889;28;20026;-74
2022/06/19 03:22:32;;;;;;;0.10;0.10;;;;;;;20.97;37.09;100162.63;4992431;28;20038;-73
2022/06/19 03:24:58;;;;;;;0.20;0.20;;;;;;;20.88;37.45;100159.59;4976297;28;20027;-73
2022/06/19 03:27:23;;;;;;;0.17;0.17;;;;;;;20.95;37.07;100158.63;4976391;28;20130;-74
2022/06/19 03:29:49;;;;;;;0.10;0.10;;;;;;;20.78;37.38;100163.41;4976491;28;20037;-71
2022/06/19 03:32:15;;;;;;;0.10;0.10;;;;;;;20.89;37.50;100155.53;4976655;28;20468;-73
2022/06/19 03:34:42;;;;;;;0.15;0.15;;;;;;;20.91;37.51;100162.31;4976364;28;20023;-73
2022/06/19 03:37:08;;;;;;;0.10;0.10;;;;;;;20.89;37.23;100166.84;4993893;28;20093;-72
2022/06/19 03:39:34;;;;;;;0.10;0.10;;;;;;;20.85;37.19;100161.25;4976173;28;20038;-72
2022/06/19 03:42:01;;;;;;;0.10;0.10;;;;;;;20.77;37.96;100165.41;4976202;28;20031;-73
2022/06/19 03:44:27;;;;;;;0.10;0.10;;;;;;;20.78;37.24;100167.03;4976453;28;20030;-74
2022/06/19 03:46:52;;;;;;;0.10;0.10;;;;;;;20.80;37.80;100172.25;4976104;28;20026;-73
2022/06/19 03:49:20;;;;;;;0.10;0.10;;;;;;;20.80;37.37;100163.78;4977431;28;20029;-74
2022/06/19 03:51:46;;;;;;;0.17;0.17;;;;;;;20.83;37.15;100171.41;4979734;28;20030;-73
2022/06/19 03:54:12;;;;;;;0.10;0.10;;;;;;;20.80;37.37;100169.44;4979726;28;20081;-73
2022/06/19 03:56:38;;;;;;;0.10;0.10;;;;;;;20.97;37.10;100167.47;4979859;28;20088;-73
2022/06/19 03:59:04;;;;;;;0.20;0.20;;;;;;;21.44;36.50;100165.31;4963702;28;20026;-73
2022/06/19 04:01:36;;;;;;;0.10;0.10;;;;;;;22.15;34.65;100160.03;4995512;28;20030;-73
2022/06/19 04:04:03;;;;;;;0.10;0.10;;;;;;;22.77;34.05;100172.19;4976300;28;20174;-74
2022/06/19 04:06:34;;;;;;;0.10;0.10;;;;;;;23.36;33.22;100173.00;4979406;28;20043;-74
2022/06/19 04:09:00;;;;;;;0.20;0.20;;;;;;;23.94;32.14;100173.63;4979725;28;20362;-74
2022/06/19 04:11:28;;;;;;;0.10;0.10;;;;;;;24.46;30.92;100180.09;4995511;28;20038;-74
2022/06/19 04:13:54;;;;;;;0.10;0.10;;;;;;;24.70;29.87;100183.31;4979222;28;20054;-73
2022/06/19 04:16:22;;;;;;;0.10;0.10;;;;;;;25.29;27.38;100175.91;4980013;28;20033;-74
2022/06/19 04:18:49;;;;;;;0.10;0.10;;;;;;;25.67;28.42;100180.56;4996970;28;20034;-73
2022/06/19 04:21:19;;;;;;;0.10;0.10;;;;;;;25.95;27.96;100170.91;4979258;28;20031;-74
2022/06/19 04:23:45;;;;;;;0.10;0.10;;;;;;;26.52;27.71;100174.25;4979344;28;20097;-74
2022/06/19 04:26:14;;;;;;;0.10;0.10;;;;;;;26.76;27.34;100180.16;4979944;28;20033;-74
2022/06/19 04:28:40;;;;;;;0.10;0.10;;;;;;;27.33;26.83;100176.81;4995588;28;20459;-74
2022/06/19 04:31:07;;;;;;;0.10;0.10;;;;;;;27.72;26.01;100175.00;4979268;28;20058;-73
2022/06/19 04:33:37;;;;;;;0.10;0.10;;;;;;;28.04;25.63;100181.22;4978941;28;20038;-74
2022/06/19 04:36:11;;;;;;;0.10;0.10;;;;;;;28.45;25.54;100177.53;4978762;28;20030;-73
2022/06/19 04:38:38;;;;;;;0.10;0.10;;;;;;;28.78;25.16;100181.59;4995886;28;20110;-74
2022/06/19 04:41:04;;;;;;;0.10;0.10;;;;;;;28.89;24.79;100187.53;4979226;28;20041;-74
2022/06/19 04:43:30;;;;;;;0.10;0.10;;;;;;;29.18;23.93;100190.47;4978578;28;20416;-74
2022/06/19 04:46:06;;;;;;;0.10;0.10;;;;;;;29.72;23.86;100199.03;4978569;28;20046;-74
2022/06/19 04:48:32;;;;;;;0.10;0.10;;;;;;;29.98;23.34;100204.94;4978654;28;20081;-73
2022/06/19 04:50:58;;;;;;;0.10;0.10;;;;;;;30.40;24.01;100195.97;4995278;28;20376;-74
2022/06/19 04:53:24;;;;;;;0.10;0.10;;;;;;;30.64;23.19;100204.38;4978972;28;20029;-74
2022/06/19 04:55:50;;;;;;;0.10;0.10;;;;;;;30.52;22.42;100208.38;4994770;28;20030;-74
2022/06/19 04:58:16;;;;;;;0.10;0.10;;;;;;;30.96;21.58;100202.47;4978784;28;20030;-74
2022/06/19 05:00:41;;;;;;;0.10;0.10;;;;;;;31.42;21.56;100200.91;4978018;28;20464;-73
2022/06/19 05:03:07;;;;;;;0.10;0.10;;;;;;;31.03;20.69;100201.25;4978104;28;20128;-74
2022/06/19 05:05:33;;;;;;;0.10;0.10;;;;;;;31.37;20.46;100193.00;4977993;28;20030;-74
2022/06/19 05:07:58;;;;;;;0.10;0.10;;;;;;;31.71;20.15;100199.88;4978313;28;20037;-74
2022/06/19 05:10:24;;;;;;;0.10;0.10;;;;;;;31.70;20.31;100201.19;4977978;28;20056;-74
2022/06/19 05:12:56;;;;;;;0.10;0.10;;;;;;;32.19;19.16;100202.91;4978353;28;20117;-74
2022/06/19 05:15:21;;;;;;;0.10;0.10;;;;;;;32.53;18.72;100198.16;4996012;28;20026;-75
2022/06/19 05:17:47;;;;;;;0.10;0.10;;;;;;;32.62;18.23;100194.28;4978175;28;20092;-73
2022/06/19 05:20:13;;;;;;;0.10;0.10;;;;;;;32.81;18.68;100203.25;4977923;28;20460;-74
2022/06/19 05:22:40;;;;;;;0.10;0.10;;;;;;;32.92;18.42;100202.53;4977741;28;20033;-74
2022/06/19 05:25:08;;;;;;;0.10;0.10;;;;;;;33.15;18.63;100215.72;4978037;28;20034;-74
2022/06/19 05:27:39;;;;;;;0.10;0.10;;;;;;;32.56;17.96;100214.41;4977852;28;20034;-74
2022/06/19 05:30:06;;;;;;;0.10;0.10;;;;;;;33.14;17.73;100211.28;4994352;28;20096;-74
2022/06/19 05:32:32;;;;;;;0.10;0.10;;;;;;;32.71;17.87;100208.47;4977510;28;20018;-73
2022/06/19 05:34:58;;;;;;;0.10;0.10;;;;;;;32.59;18.33;100206.81;4977571;28;20034;-74
2022/06/19 05:37:26;;;;;;;0.10;0.10;;;;;;;32.91;18.10;100215.38;4994262;28;20092;-73
2022/06/19 05:39:51;;;;;;;0.10;0.10;;;;;;;33.28;18.03;100213.13;4977573;28;20030;-74
2022/06/19 05:42:17;;;;;;;0.10;0.10;;;;;;;33.75;17.75;100212.72;4977492;28;20092;-73
2022/06/19 05:44:43;;;;;;;0.10;0.10;;;;;;;32.44;18.30;100220.59;4993556;28;20088;-74
2022/06/19 05:47:08;;;;;;;0.10;0.10;;;;;;;32.74;18.73;100213.19;4977548;28;20030;-74
2022/06/19 05:49:34;;;;;;;0.10;0.10;;;;;;;32.76;18.92;100218.41;4977872;28;20038;-74
2022/06/19 05:52:01;;;;;;;0.10;0.10;;;;;;;33.31;18.15;100226.50;4977334;28;20034;-74
2022/06/19 05:54:29;;;;;;;0.10;0.10;;;;;;;32.65;18.90;100227.78;4977790;28;20512;-74
2022/06/19 05:56:54;;;;;;;0.10;0.10;;;;;;;31.14;20.17;100224.34;4977437;28;20154;-74
2022/06/19 05:59:20;;;;;;;0.10;0.10;;;;;;;31.45;20.16;100220.00;4977227;28;20037;-73
2022/06/19 06:01:45;;;;;;;0.10;0.10;;;;;;;31.89;20.06;100227.50;4977158;28;20023;-73
2022/06/19 06:04:11;;;;;;;0.10;0.10;;;;;;;32.19;19.43;100225.91;4977683;28;20030;-74
2022/06/19 06:06:39;;;;;;;0.10;0.10;;;;;;;31.68;20.22;100227.56;4994519;28;20519;-74
2022/06/19 06:09:05;;;;;;;0.10;0.10;;;;;;;31.46;20.69;100216.63;4992502;28;20440;-73
2022/06/19 06:11:31;;;;;;;0.10;0.10;;;;;;;31.94;19.99;100229.63;4976651;28;20124;-72
2022/06/19 06:13:56;;;;;;;0.10;0.10;;;;;;;31.63;20.41;100219.66;4976565;28;20141;-73
2022/06/19 06:16:22;;;;;;;0.10;0.10;;;;;;;31.67;20.37;100225.97;4994393;28;20034;-73
2022/06/19 06:18:49;;;;;;;0.10;0.10;;;;;;;31.79;20.31;100227.66;4976824;28;20034;-72
2022/06/19 06:21:21;;;;;;;0.10;0.10;;;;;;;32.23;20.11;100235.13;4977130;28;20030;-72
2022/06/19 06:23:47;;;;;;;0.10;0.10;;;;;;;32.58;19.45;100231.94;4976749;28;20030;-73
2022/06/19 06:26:16;;;;;;;0.10;0.10;;;;;;;31.90;19.95;100226.19;4976610;28;20026;-72
2022/06/19 06:28:45;;;;;;;0.10;0.10;;;;;;;31.78;20.08;100236.78;4977067;28;20038;-73
2022/06/19 06:31:11;;;;;;;0.10;0.10;;;;;;;30.82;21.54;100242.75;4976701;28;20026;-74
2022/06/19 06:33:38;;;;;;;0.10;0.10;;;;;;;31.51;20.99;100212.22;4994470;28;20041;-72
2022/06/19 06:36:05;;;;;;;0.10;0.10;;;;;;;32.20;20.18;100230.38;4993116;28;20031;-73
2022/06/19 06:38:31;;;;;;;0.10;0.10;;;;;;;32.57;20.16;100244.00;4976821;28;20037;-73
2022/06/19 06:40:56;;;;;;;0.10;0.10;;;;;;;32.24;19.84;100233.81;4976380;28;20038;-72
2022/06/19 06:43:22;;;;;;;0.10;0.10;;;;;;;31.52;20.43;100231.06;4976396;28;20026;-72
2022/06/19 06:45:48;;;;;;;0.10;0.10;;;;;;;31.15;21.21;100243.16;4976818;28;20019;-73
2022/06/19 06:48:15;;;;;;;0.10;0.10;;;;;;;31.66;20.29;100235.13;4976951;28;20058;-73
2022/06/19 06:50:43;;;;;;;0.10;0.10;;;;;;;32.72;19.72;100247.47;4977000;28;20472;-73
2022/06/19 06:53:10;;;;;;;0.10;0.10;;;;;;;33.34;19.32;100237.00;4992843;28;20069;-73
2022/06/19 06:55:40;;;;;;;0.10;0.10;;;;;;;33.68;18.85;100231.34;4993325;28;20076;-73
2022/06/19 06:58:09;;;;;;;0.10;0.10;;;;;;;34.29;18.41;100233.44;4992743;28;20050;-73
2022/06/19 07:00:35;;;;;;;0.10;0.10;;;;;;;34.18;18.03;100245.00;4977109;28;20030;-73
2022/06/19 07:03:00;;;;;;;0.10;0.10;;;;;;;33.87;17.88;100238.16;4992784;28;20104;-74
2022/06/19 07:05:30;;;;;;;0.10;0.10;;;;;;;34.38;18.28;100212.94;4976454;28;20033;-73
2022/06/19 07:07:56;;;;;;;0.10;0.10;;;;;;;35.27;17.63;100237.09;4992607;28;20038;-73
2022/06/19 07:10:22;;;;;;;0.10;0.10;;;;;;;35.71;16.92;100241.06;4992613;28;20026;-73
2022/06/19 07:12:48;;;;;;;0.10;0.10;;;;;;;34.90;17.85;100243.28;4976235;28;20496;-74
2022/06/19 07:15:15;;;;;;;0.10;0.10;;;;;;;35.39;17.05;100238.59;4993503;28;20038;-73
2022/06/19 07:17:40;;;;;;;0.10;0.10;;;;;;;35.31;16.79;100240.47;4994566;28;20415;-73
2022/06/19 07:20:09;;;;;;;0.10;0.10;;;;;;;35.30;17.30;100235.22;4976091;28;20027;-74
2022/06/19 07:22:34;;;;;;;0.10;0.10;;;;;;;35.69;16.20;100235.81;4992332;28;20552;-73
2022/06/19 07:25:02;;;;;;;0.10;0.10;;;;;;;35.57;16.42;100237.19;4996244;28;20031;-74
2022/06/19 07:27:27;;;;;;;0.10;0.10;;;;;;;35.71;16.97;100231.59;4996152;28;20030;-74
2022/06/19 07:29:53;;;;;;;0.10;0.10;;;;;;;35.85;16.94;100230.41;4979803;28;20496;-74
2022/06/19 07:32:20;;;;;;;0.10;0.10;;;;;;;36.20;17.03;100238.28;4979920;28;20037;-74
2022/06/19 07:34:48;;;;;;;0.10;0.10;;;;;;;35.35;17.03;100237.31;4980055;28;20085;-75
2022/06/19 07:37:16;;;;;;;0.10;0.10;;;;;;;35.44;16.85;100225.47;4979711;28;20030;-75
2022/06/19 07:39:42;;;;;;;0.10;0.10;;;;;;;35.11;17.63;100226.41;4996501;28;20026;-75
2022/06/19 07:42:08;;;;;;;0.10;0.10;;;;;;;35.45;16.82;100232.03;4979944;28;20468;-74
2022/06/19 07:44:38;;;;;;;0.10;0.10;;;;;;;35.09;18.03;100221.16;4979806;28;20026;-75
2022/06/19 07:50:11;;;;;;;0.10;0.10;;;;;;;34.87;17.80;100222.00;4997032;28;20046;-75
2022/06/19 07:52:38;;;;;;;0.10;0.10;;;;;;;35.98;16.73;100224.03;4979290;28;20034;-74
2022/06/19 07:55:05;;;;;;;0.10;0.10;;;;;;;36.15;16.56;100221.75;4979505;28;20461;-74
2022/06/19 07:57:31;;;;;;;0.10;0.10;;;;;;;36.30;15.97;100219.25;4996103;28;20038;-73
2022/06/19 07:59:56;;;;;;;0.10;0.10;;;;;;;35.64;16.67;100221.38;4996849;28;20092;-73
2022/06/19 08:02:24;;;;;;;0.10;0.10;;;;;;;35.86;16.12;100221.19;4979656;28;20034;-73
2022/06/19 08:04:50;;;;;;;0.10;0.10;;;;;;;35.97;16.20;100219.56;4996575;28;20057;-74
2022/06/19 08:07:16;;;;;;;0.10;0.10;;;;;;;36.13;16.08;100218.63;4979127;28;20092;-74
2022/06/19 08:09:41;;;;;;;0.10;0.10;;;;;;;36.92;15.80;100216.47;4978980;28;20034;-73
2022/06/19 08:12:08;;;;;;;0.10;0.10;;;;;;;37.22;14.97;100224.25;4978960;28;20038;-74
2022/06/19 08:14:34;;;;;;;0.10;0.10;;;;;;;37.49;14.58;100217.28;4994686;28;20046;-73
2022/06/19 08:17:00;;;;;;;0.10;0.10;;;;;;;37.81;14.57;100222.31;4979189;28;20023;-74
2022/06/19 08:19:26;;;;;;;0.10;0.10;;;;;;;37.60;14.28;100212.63;4979289;28;20384;-74
2022/06/19 08:21:51;;;;;;;0.10;0.10;;;;;;;36.46;15.64;100214.63;4979151;28;20465;-74
2022/06/19 08:24:17;;;;;;;0.10;0.10;;;;;;;36.47;15.16;100216.19;4978946;28;20038;-74
2022/06/19 08:26:43;;;;;;;0.10;0.10;;;;;;;35.98;16.14;100216.13;4995657;28;20128;-74
2022/06/19 08:29:09;;;;;;;0.10;0.10;;;;;;;35.95;15.65;100217.97;4978899;28;20453;-74
2022/06/19 08:31:35;;;;;;;0.10;0.10;;;;;;;35.37;16.65;100217.31;4996283;28;20026;-73
2022/06/19 08:34:04;;;;;;;0.10;0.10;;;;;;;34.44;17.25;100212.16;4996335;28;20030;-74
2022/06/19 08:36:33;;;;;;;0.10;0.10;;;;;;;34.38;17.57;100218.72;4995631;28;20112;-74
2022/06/19 08:39:02;;;;;;;0.10;0.10;;;;;;;33.71;18.27;100207.19;4996326;28;20065;-73
2022/06/19 08:41:49;;;;;;;0.10;0.10;;;;;;;33.53;18.67;100225.00;4995614;28;20030;-72
2022/06/19 08:44:48;;;;;;;0.10;0.10;;;;;;;34.11;18.16;100222.44;4978451;28;20042;-74
2022/06/19 08:47:19;;;;;;;0.10;0.10;;;;;;;33.85;18.71;100223.47;4961831;28;20121;-72
2022/06/19 08:49:47;;;;;;;0.10;0.10;;;;;;;34.50;18.20;100227.38;4995331;28;20432;-73
2022/06/19 08:52:42;;;;;;;0.10;0.10;;;;;;;33.27;19.04;100225.97;4994536;28;20033;-72
2022/06/19 08:55:31;;;;;;;0.10;0.10;;;;;;;33.10;18.79;100211.53;4960277;28;20043;-72
2022/06/19 08:58:00;;;;;;;0.10;0.10;;;;;;;34.10;18.01;100215.09;4994223;28;20062;-75
2022/06/19 09:00:46;;;;;;;0.10;0.10;;;;;;;34.25;18.47;100223.47;4994933;28;20037;-73
2022/06/19 09:03:17;;;;;;;0.10;0.10;;;;;;;33.27;18.79;100214.44;4962736;28;20042;-72
2022/06/19 09:06:13;;;;;;;0.10;0.10;;;;;;;33.74;18.16;100211.13;4993995;28;20138;-73
2022/06/19 09:08:44;;;;;;;0.10;0.10;;;;;;;34.26;16.89;100211.41;4977825;28;20102;-72
2022/06/19 09:11:26;;;;;;;0.10;0.10;;;;;;;35.12;16.75;100199.06;4994045;28;20034;-72
2022/06/19 09:13:57;;;;;;;0.10;0.10;;;;;;;35.68;16.20;100216.06;4993730;28;20070;-72
2022/06/19 09:16:39;;;;;;;0.10;0.10;;;;;;;35.75;16.33;100212.63;4994013;28;20037;-73
2022/06/19 09:19:14;;;;;;;0.10;0.10;;;;;;;36.02;16.87;100207.94;4977238;28;20033;-73
2022/06/19 09:22:12;;;;;;;0.10;0.10;;;;;;;34.45;17.80;100220.31;4993921;28;20124;-73
2022/06/19 09:24:56;;;;;;;0.10;0.10;;;;;;;34.01;18.24;100204.59;4977705;28;20121;-73
2022/06/19 09:27:34;;;;;;;0.10;0.10;;;;;;;33.52;18.88;100209.03;4994401;28;20027;-73
2022/06/19 09:30:14;;;;;;;0.10;0.10;;;;;;;34.59;18.09;100193.22;4994035;28;20599;-74
2022/06/19 09:32:48;;;;;;;0.10;0.10;;;;;;;34.17;17.62;100196.44;4995317;28;20499;-73
2022/06/19 09:35:24;;;;;;;0.10;0.10;;;;;;;35.14;17.86;100193.53;4977118;28;20137;-73
2022/06/19 09:38:15;;;;;;;0.10;0.10;;;;;;;35.73;16.52;100200.78;4995021;28;20026;-72
2022/06/19 09:40:45;;;;;;;0.10;0.10;;;;;;;34.80;17.82;100190.00;4977228;28;20057;-73
2022/06/19 09:43:34;;;;;;;0.10;0.10;;;;;;;34.57;17.87;100180.63;4993700;28;20030;-72
2022/06/19 09:46:07;;;;;;;0.10;0.10;;;;;;;34.95;17.75;100181.03;4977157;28;20465;-72
2022/06/19 09:48:51;;;;;;;;;;;;;;;34.02;18.84;100188.06;4993679;28;20038;-72
2022/06/19 09:51:23;;;;;;;0.10;0.10;;;;;;;34.71;17.40;100188.19;4976943;28;20063;-73
2022/06/19 09:54:12;;;;;;;0.10;0.10;;;;;;;35.14;17.00;100196.41;4993169;28;20041;-74
2022/06/19 09:57:01;;;;;;;0.10;0.10;;;;;;;36.11;16.58;100172.81;4977001;28;20145;-73
2022/06/19 09:59:50;;;;;;;0.10;0.10;;;;;;;36.01;16.89;100185.28;4977673;28;20062;-73
2022/06/19 10:02:48;;;;;;;0.10;0.10;;;;;;;33.99;18.71;100181.25;4993142;28;20468;-74
2022/06/19 10:05:33;;;;;;;0.10;0.10;;;;;;;33.44;18.93;100179.13;4993378;28;20027;-73
2022/06/19 10:08:40;;;;;;;0.10;0.10;;;;;;;33.70;19.43;100170.22;4975997;28;20125;-73
2022/06/19 10:11:27;;;;;;;0.10;0.10;;;;;;;33.45;19.94;100177.81;4975651;28;20042;-73
2022/06/19 10:14:23;;;;;;;0.10;0.10;;;;;;;34.03;19.05;100172.31;4994107;28;20069;-73
2022/06/19 10:17:03;;;;;;;0.10;0.10;;;;;;;34.80;17.89;100164.78;4994048;28;20026;-72
2022/06/19 10:19:40;;;;;;;0.10;0.10;;;;;;;34.63;19.90;100130.19;4992733;28;20468;-73
2022/06/19 10:22:25;;;;;;;0.10;0.10;;;;;;;35.51;18.60;100166.22;4993929;28;20030;-72
2022/06/19 10:25:06;;;;;;;0.10;0.10;;;;;;;36.06;18.32;100169.97;4994235;28;20026;-73
2022/06/19 10:27:43;;;;;;;0.10;0.10;;;;;;;35.52;18.18;100180.16;4992831;28;20023;-73
2022/06/19 10:30:43;;;;;;;0.10;0.10;;;;;;;35.75;17.96;100168.41;4993845;28;20031;-73
2022/06/19 10:33:14;;;;;;;0.10;0.10;;;;;;;35.68;19.21;100169.78;4969060;28;20141;-73
2022/06/19 10:35:52;;;;;;;0.10;0.10;;;;;;;35.78;18.96;100156.53;4993756;28;20045;-73
2022/06/19 10:38:36;;;;;;;0.10;0.10;;;;;;;34.16;20.06;100155.25;4976394;28;20049;-74
2022/06/19 10:42:00;;;;;;;0.10;0.10;;;;;;;34.86;20.25;100170.53;4993210;28;20390;-73
2022/06/19 10:44:18;;;;;;;0.10;0.10;;;;;;;35.33;19.18;100164.75;4993606;28;20472;-73
2022/06/19 10:46:56;;;;;;;0.10;0.10;;;;;;;35.10;18.84;100164.91;4976806;28;20464;-74
2022/06/19 10:49:40;;;;;;;0.10;0.10;;;;;;;33.86;20.44;100166.53;4993284;28;20081;-74
2022/06/19 10:52:06;;;;;;;0.10;0.10;;;;;;;34.84;20.50;100173.19;4976750;28;20055;-73
2022/06/19 10:54:56;;;;;;;0.10;0.10;;;;;;;35.18;19.96;100163.00;4992862;28;20105;-74
2022/06/19 10:57:44;;;;;;;0.10;0.10;;;;;;;35.68;20.00;100163.97;4992855;28;20476;-73
2022/06/19 11:00:10;;;;;;;0.10;0.10;;;;;;;35.72;18.92;100152.91;4983428;28;20030;-73
2022/06/19 11:05:56;;;;;;;0.10;0.10;;;;;;;34.20;20.66;100161.56;5000174;28;20041;-72
2022/06/19 11:08:26;;;;;;;0.10;0.10;;;;;;;34.30;20.08;100157.03;4983132;28;20034;-72
2022/06/19 11:10:55;;;;;;;0.10;0.10;;;;;;;33.80;20.62;100166.53;4982604;28;20037;-72
2022/06/19 11:13:21;;;;;;;0.10;0.10;;;;;;;34.12;20.78;100157.63;5000337;28;20057;-72
2022/06/19 11:16:02;;;;;;;0.10;0.10;;;;;;;34.65;20.00;100155.66;4982612;28;20030;-73
2022/06/19 11:18:28;;;;;;;0.10;0.10;;;;;;;34.72;20.11;100160.84;4982985;28;20034;-72
2022/06/19 11:20:53;;;;;;;0.10;0.10;;;;;;;34.42;19.88;100160.69;4998692;28;20093;-72
2022/06/19 11:23:18;;;;;;;0.10;0.10;;;;;;;34.60;19.17;100159.34;4999306;28;20125;-72
2022/06/19 11:26:05;;;;;;;0.10;0.10;;;;;;;34.71;18.89;100155.63;4999301;28;20030;-71
2022/06/19 11:28:40;;;;;;;0.10;0.10;;;;;;;33.60;20.28;100150.28;4998866;28;20460;-72
2022/06/19 11:31:34;;;;;;;0.10;0.10;;;;;;;34.19;19.94;100154.19;4999346;28;20076;-73
2022/06/19 11:34:43;;;;;;;0.10;0.10;;;;;;;34.26;19.64;100159.44;4981787;28;20504;-72
2022/06/19 11:37:25;;;;;;;0.10;0.10;;;;;;;33.95;19.72;100154.75;4999592;28;20104;-72
2022/06/19 11:39:51;;;;;;;;;;;;;;;34.64;19.68;100142.53;4999172;28;20505;-73
2022/06/19 11:42:24;;;;;;;0.10;0.10;;;;;;;33.99;20.16;100149.50;4998461;28;20008;-72
2022/06/19 11:44:55;;;;;;;0.10;0.10;;;;;;;34.59;20.17;100143.34;4998848;28;20058;-72
2022/06/19 11:47:39;;;;;;;0.10;0.10;;;;;;;34.19;19.92;100150.50;4999813;28;20030;-72
2022/06/19 11:50:19;;;;;;;0.10;0.10;;;;;;;34.88;19.61;100144.75;4998509;28;20092;-72
2022/06/19 11:52:49;;;;;;;0.10;0.10;;;;;;;34.60;19.57;100142.78;4982856;28;20030;-73